createdAt,value
2022-12-31T00:00:34.519Z,16.67
2022-12-31T00:01:34.474Z,16.67
2022-12-31T00:02:34.497Z,16.63
2022-12-31T00:03:34.485Z,16.61
2022-12-31T00:04:34.421Z,16.63
2022-12-31T00:05:34.424Z,16.60
2022-12-31T00:06:34.409Z,16.64
2022-12-31T00:08:10.778Z,18.37
2022-12-31T00:09:10.778Z,18.15
2022-12-31T00:10:10.744Z,18.04
2022-12-31T00:11:10.777Z,17.92
2022-12-31T00:12:10.717Z,17.92
2022-12-31T00:13:10.734Z,17.78
2022-12-31T00:14:10.705Z,17.72
2022-12-31T00:15:10.702Z,17.60
2022-12-31T00:16:12.423Z,17.61
2022-12-31T00:17:10.754Z,17.54
2022-12-31T00:18:10.657Z,17.47
2022-12-31T00:19:10.664Z,17.42
2022-12-31T00:20:10.627Z,17.30
2022-12-31T00:21:10.631Z,17.21
2022-12-31T00:22:10.615Z,17.16
2022-12-31T00:23:10.607Z,17.14
2022-12-31T00:24:10.599Z,17.06
2022-12-31T00:25:10.560Z,17.00
2022-12-31T00:26:10.571Z,17.02
2022-12-31T00:27:10.554Z,16.96
2022-12-31T00:28:10.550Z,16.88
2022-12-31T00:29:10.524Z,16.91
2022-12-31T00:30:10.540Z,16.91
2022-12-31T00:31:10.558Z,16.80
2022-12-31T00:32:10.547Z,16.72
2022-12-31T00:33:10.513Z,16.64
2022-12-31T00:34:10.482Z,16.55
2022-12-31T00:35:10.453Z,16.52
2022-12-31T00:36:10.445Z,16.44
2022-12-31T00:37:10.438Z,16.38
2022-12-31T00:38:10.431Z,16.34
2022-12-31T00:39:10.408Z,16.35
2022-12-31T00:40:10.415Z,16.30
2022-12-31T00:41:10.377Z,16.24
2022-12-31T00:42:10.382Z,16.26
2022-12-31T00:43:10.369Z,16.24
2022-12-31T00:44:10.368Z,16.17
2022-12-31T00:45:10.333Z,16.02
2022-12-31T00:46:10.392Z,16.12
2022-12-31T00:47:10.313Z,16.08
2022-12-31T00:48:10.326Z,16.09
2022-12-31T00:49:10.286Z,16.02
2022-12-31T00:50:10.299Z,16.07
2022-12-31T00:51:10.269Z,16.00
2022-12-31T00:52:10.258Z,16.03
2022-12-31T00:53:10.256Z,16.00
2022-12-31T00:54:10.323Z,15.96
2022-12-31T00:55:10.224Z,15.96
2022-12-31T00:56:10.238Z,16.03
2022-12-31T00:57:10.196Z,16.04
2022-12-31T00:58:10.201Z,16.10
2022-12-31T00:59:10.190Z,16.04
2022-12-31T01:00:10.161Z,16.12
2022-12-31T01:01:10.228Z,16.08
2022-12-31T01:02:10.292Z,16.14
2022-12-31T01:03:10.192Z,16.07
2022-12-31T01:04:10.151Z,16.00
2022-12-31T01:05:10.126Z,16.07
2022-12-31T01:06:10.107Z,16.05
2022-12-31T01:07:10.079Z,16.03
2022-12-31T01:08:10.082Z,15.98
2022-12-31T01:09:10.104Z,15.97
2022-12-31T01:10:10.098Z,15.88
2022-12-31T01:11:10.026Z,15.92
2022-12-31T01:12:10.056Z,15.92
2022-12-31T01:13:09.996Z,15.90
2022-12-31T01:14:10.021Z,15.91
2022-12-31T01:15:10.008Z,15.92
2022-12-31T01:16:10.030Z,15.90
2022-12-31T01:17:09.972Z,15.94
2022-12-31T01:18:09.966Z,15.92
2022-12-31T01:19:09.971Z,15.92
2022-12-31T01:20:09.936Z,15.94
2022-12-31T01:21:09.905Z,15.90
2022-12-31T01:22:09.912Z,15.91
2022-12-31T01:23:09.878Z,15.90
2022-12-31T01:24:09.887Z,15.86
2022-12-31T01:25:09.877Z,15.85
2022-12-31T01:26:09.870Z,15.85
2022-12-31T01:27:09.838Z,15.79
2022-12-31T01:28:09.844Z,15.82
2022-12-31T01:29:09.824Z,15.84
2022-12-31T01:30:09.825Z,15.78
2022-12-31T01:31:09.847Z,15.77
2022-12-31T01:32:09.793Z,15.78
2022-12-31T01:33:09.757Z,15.78
2022-12-31T01:34:09.767Z,15.77
2022-12-31T01:35:09.756Z,15.74
2022-12-31T01:36:09.757Z,15.73
2022-12-31T01:37:09.708Z,15.74
2022-12-31T01:38:09.726Z,15.71
2022-12-31T01:39:09.699Z,15.69
2022-12-31T01:40:09.702Z,15.72
2022-12-31T01:41:09.672Z,15.69
2022-12-31T01:42:09.669Z,15.66
2022-12-31T01:43:09.643Z,15.59
2022-12-31T01:44:09.649Z,15.64
2022-12-31T01:45:09.621Z,15.61
2022-12-31T01:46:09.699Z,15.64
2022-12-31T01:47:09.597Z,15.56
2022-12-31T01:48:09.599Z,15.57
2022-12-31T01:49:09.567Z,15.53
2022-12-31T01:50:09.579Z,15.59
2022-12-31T01:51:09.555Z,15.54
2022-12-31T01:52:09.577Z,15.49
2022-12-31T01:53:09.526Z,15.56
2022-12-31T01:54:09.530Z,15.53
2022-12-31T01:55:09.505Z,15.54
2022-12-31T01:56:09.516Z,15.51
2022-12-31T01:57:09.486Z,15.54
2022-12-31T01:58:09.511Z,15.52
2022-12-31T01:59:09.457Z,15.52
2022-12-31T02:00:09.461Z,15.50
2022-12-31T02:01:09.441Z,15.45
2022-12-31T02:02:09.459Z,15.52
2022-12-31T02:03:09.508Z,15.43
2022-12-31T02:04:09.421Z,15.46
2022-12-31T02:05:09.393Z,15.43
2022-12-31T02:06:09.404Z,15.45
2022-12-31T02:07:09.357Z,15.37
2022-12-31T02:08:09.384Z,15.48
2022-12-31T02:09:09.338Z,15.46
2022-12-31T02:10:09.344Z,15.50
2022-12-31T02:11:09.331Z,15.45
2022-12-31T02:12:09.330Z,15.40
2022-12-31T02:13:09.308Z,15.41
2022-12-31T02:14:09.302Z,15.44
2022-12-31T02:15:09.268Z,15.37
2022-12-31T02:16:09.303Z,15.43
2022-12-31T02:17:09.245Z,15.40
2022-12-31T02:18:09.253Z,15.45
2022-12-31T02:19:09.231Z,15.38
2022-12-31T02:20:09.223Z,15.46
2022-12-31T02:21:09.199Z,15.44
2022-12-31T02:22:09.221Z,15.48
2022-12-31T02:23:09.170Z,15.54
2022-12-31T02:24:09.185Z,15.52
2022-12-31T02:25:09.176Z,15.56
2022-12-31T02:26:09.144Z,15.52
2022-12-31T02:27:09.128Z,15.59
2022-12-31T02:28:09.133Z,15.62
2022-12-31T02:29:09.106Z,15.66
2022-12-31T02:30:09.102Z,15.71
2022-12-31T02:31:09.119Z,15.78
2022-12-31T02:32:09.096Z,15.85
2022-12-31T02:33:09.065Z,15.90
2022-12-31T02:34:09.097Z,15.98
2022-12-31T02:35:09.028Z,16.03
2022-12-31T02:36:09.044Z,16.12
2022-12-31T02:37:09.008Z,16.17
2022-12-31T02:38:09.011Z,16.20
2022-12-31T02:39:08.989Z,16.35
2022-12-31T02:40:08.985Z,16.38
2022-12-31T02:41:08.975Z,16.53
2022-12-31T02:42:08.964Z,16.56
2022-12-31T02:43:08.946Z,16.70
2022-12-31T02:44:08.944Z,16.70
2022-12-31T02:45:08.905Z,16.70
2022-12-31T02:46:08.979Z,16.78
2022-12-31T02:47:08.985Z,16.93
2022-12-31T02:48:08.889Z,16.99
2022-12-31T02:49:08.873Z,17.16
2022-12-31T02:50:08.871Z,17.37
2022-12-31T02:51:08.858Z,17.45
2022-12-31T02:52:08.848Z,17.50
2022-12-31T02:53:08.828Z,17.53
2022-12-31T02:54:08.817Z,17.67
2022-12-31T02:55:08.794Z,17.90
2022-12-31T02:56:08.814Z,18.04
2022-12-31T02:57:08.786Z,18.34
2022-12-31T02:58:08.783Z,18.57
2022-12-31T02:59:08.746Z,18.78
2022-12-31T03:00:08.765Z,19.05
2022-12-31T03:01:08.769Z,19.41
2022-12-31T03:02:08.811Z,19.83
2022-12-31T03:03:08.697Z,20.46
2022-12-31T03:04:08.706Z,21.14
2022-12-31T03:05:08.682Z,21.89
2022-12-31T03:06:08.674Z,22.52
2022-12-31T03:07:08.664Z,23.09
2022-12-31T03:08:08.667Z,23.78
2022-12-31T03:09:08.627Z,24.43
2022-12-31T03:10:08.637Z,25.04
2022-12-31T03:11:08.601Z,25.62
2022-12-31T03:12:08.610Z,26.08
2022-12-31T03:13:08.613Z,26.30
2022-12-31T03:14:08.603Z,26.83
2022-12-31T03:15:08.563Z,27.27
2022-12-31T03:16:08.616Z,28.07
2022-12-31T03:17:08.546Z,29.00
2022-12-31T03:18:08.674Z,30.47
2022-12-31T03:19:08.523Z,32.31
2022-12-31T03:20:08.532Z,34.21
2022-12-31T03:21:08.499Z,36.30
2022-12-31T03:22:08.505Z,37.20
2022-12-31T03:23:08.488Z,38.39
2022-12-31T03:24:08.474Z,39.25
2022-12-31T03:25:08.454Z,40.57
2022-12-31T03:26:08.449Z,41.45
2022-12-31T03:27:08.421Z,40.26
2022-12-31T03:28:08.422Z,39.10
2022-12-31T03:29:08.438Z,39.17
2022-12-31T03:30:08.403Z,39.39
2022-12-31T03:31:08.429Z,40.46
2022-12-31T03:32:08.374Z,41.99
2022-12-31T03:33:08.359Z,43.28
2022-12-31T03:34:08.364Z,44.47
2022-12-31T03:35:08.345Z,44.81
2022-12-31T03:36:08.333Z,45.05
2022-12-31T03:37:08.310Z,45.14
2022-12-31T03:38:08.313Z,45.78
2022-12-31T03:39:08.301Z,47.76
2022-12-31T03:40:08.275Z,50.03
2022-12-31T03:41:08.249Z,51.98
2022-12-31T03:42:08.261Z,53.98
2022-12-31T03:43:08.232Z,57.06
2022-12-31T03:44:08.250Z,59.69
2022-12-31T03:45:08.222Z,62.44
2022-12-31T03:46:08.234Z,63.96
2022-12-31T03:47:08.185Z,65.82
2022-12-31T03:48:08.214Z,67.94
2022-12-31T03:49:08.169Z,69.98
2022-12-31T03:50:08.153Z,72.58
2022-12-31T03:51:08.149Z,74.24
2022-12-31T03:52:08.148Z,75.99
2022-12-31T03:53:08.120Z,78.18
2022-12-31T03:54:08.152Z,80.65
2022-12-31T03:55:08.099Z,81.04
2022-12-31T03:56:08.095Z,78.84
2022-12-31T03:57:08.071Z,80.73
2022-12-31T03:58:08.068Z,83.21
2022-12-31T03:59:08.059Z,83.38
2022-12-31T04:00:08.045Z,84.81
2022-12-31T04:01:08.109Z,82.23
2022-12-31T04:02:08.108Z,82.96
2022-12-31T04:03:08.047Z,86.46
2022-12-31T04:04:08.016Z,86.64
2022-12-31T04:05:07.981Z,87.00
2022-12-31T04:06:07.980Z,88.28
2022-12-31T04:07:07.950Z,91.95
2022-12-31T04:08:07.945Z,92.15
2022-12-31T04:09:07.962Z,94.11
2022-12-31T04:10:07.955Z,96.35
2022-12-31T04:11:07.900Z,101.77
2022-12-31T04:12:07.917Z,107.98
2022-12-31T04:13:07.926Z,115.95
2022-12-31T04:14:07.904Z,123.99
2022-12-31T04:15:07.872Z,131.97
2022-12-31T04:16:07.886Z,139.75
2022-12-31T04:17:07.849Z,146.32
2022-12-31T04:18:07.861Z,153.68
2022-12-31T04:19:07.831Z,159.36
2022-12-31T04:20:07.843Z,164.18
2022-12-31T04:21:07.795Z,169.31
2022-12-31T04:22:07.796Z,174.95
2022-12-31T04:23:07.768Z,177.72
2022-12-31T04:24:07.788Z,180.01
2022-12-31T04:25:07.738Z,182.55
2022-12-31T04:26:07.763Z,185.16
2022-12-31T04:27:08.207Z,187.45
2022-12-31T04:28:07.730Z,188.30
2022-12-31T04:29:07.710Z,191.69
2022-12-31T04:30:07.730Z,190.47
2022-12-31T04:31:07.664Z,192.02
2022-12-31T04:32:07.722Z,192.69
2022-12-31T04:33:07.651Z,193.93
2022-12-31T04:34:07.658Z,195.08
2022-12-31T04:35:07.643Z,196.59
2022-12-31T04:36:07.643Z,195.43
2022-12-31T04:37:07.602Z,194.28
2022-12-31T04:38:07.608Z,194.62
2022-12-31T04:39:07.584Z,195.89
2022-12-31T04:40:07.580Z,197.17
2022-12-31T04:41:07.560Z,198.36
2022-12-31T04:42:07.563Z,203.49
2022-12-31T04:43:07.555Z,206.93
2022-12-31T04:44:07.541Z,209.95
2022-12-31T04:45:07.543Z,209.81
2022-12-31T04:46:07.533Z,212.65
2022-12-31T04:47:07.539Z,214.86
2022-12-31T04:48:07.474Z,215.42
2022-12-31T04:49:07.495Z,213.89
2022-12-31T04:50:07.457Z,216.83
2022-12-31T04:51:07.480Z,215.84
2022-12-31T04:52:07.436Z,215.42
2022-12-31T04:53:07.428Z,203.99
2022-12-31T04:54:07.404Z,185.36
2022-12-31T04:55:07.401Z,185.77
2022-12-31T04:56:07.391Z,194.51
2022-12-31T04:57:07.418Z,198.95
2022-12-31T04:58:07.358Z,201.01
2022-12-31T04:59:07.414Z,203.11
2022-12-31T05:00:07.333Z,205.13
2022-12-31T05:01:07.503Z,206.15
2022-12-31T05:02:07.498Z,210.62
2022-12-31T05:03:07.362Z,213.06
2022-12-31T05:04:07.285Z,214.16
2022-12-31T05:05:07.330Z,214.16
2022-12-31T05:06:07.271Z,215.98
2022-12-31T05:07:07.289Z,219.71
2022-12-31T05:08:07.244Z,213.06
2022-12-31T05:09:07.251Z,198.12
2022-12-31T05:10:07.221Z,195.66
2022-12-31T05:11:07.226Z,203.11
2022-12-31T05:12:07.210Z,207.44
2022-12-31T05:13:07.197Z,214.72
2022-12-31T05:14:07.168Z,220.74
2022-12-31T05:15:07.155Z,223.43
2022-12-31T05:16:07.142Z,226.02
2022-12-31T05:17:07.165Z,223.28
2022-12-31T05:18:07.124Z,212.92
2022-12-31T05:19:07.141Z,210.88
2022-12-31T05:20:07.098Z,215.98
2022-12-31T05:21:07.101Z,223.43
2022-12-31T05:22:07.081Z,224.49
2022-12-31T05:23:07.103Z,230.60
2022-12-31T05:24:07.052Z,236.88
2022-12-31T05:25:07.060Z,240.15
2022-12-31T05:26:07.060Z,243.51
2022-12-31T05:27:07.040Z,244.77
2022-12-31T05:28:07.010Z,249.01
2022-12-31T05:29:07.026Z,249.57
2022-12-31T05:30:06.979Z,253.21
2022-12-31T05:31:07.017Z,254.38
2022-12-31T05:32:06.947Z,255.55
2022-12-31T05:33:06.953Z,256.15
2022-12-31T05:34:06.942Z,256.95
2022-12-31T05:35:06.931Z,258.76
2022-12-31T05:36:06.910Z,259.98
2022-12-31T05:37:06.911Z,260.59
2022-12-31T05:38:06.880Z,260.18
2022-12-31T05:39:06.916Z,263.08
2022-12-31T05:40:06.858Z,262.66
2022-12-31T05:41:06.864Z,262.24
2022-12-31T05:42:06.838Z,259.36
2022-12-31T05:43:06.853Z,261.21
2022-12-31T05:44:06.832Z,260.80
2022-12-31T05:45:06.819Z,261.21
2022-12-31T05:46:06.848Z,258.96
2022-12-31T05:47:06.795Z,259.98
2022-12-31T05:48:06.763Z,255.16
2022-12-31T05:49:06.769Z,254.96
2022-12-31T05:50:06.745Z,255.16
2022-12-31T05:51:06.762Z,254.77
2022-12-31T05:52:06.729Z,252.24
2022-12-31T05:53:06.723Z,252.43
2022-12-31T05:54:06.700Z,249.95
2022-12-31T05:55:06.721Z,249.01
2022-12-31T05:56:06.698Z,250.71
2022-12-31T05:57:06.683Z,249.20
2022-12-31T05:58:06.653Z,248.26
2022-12-31T05:59:06.663Z,245.50
2022-12-31T06:00:06.644Z,242.97
2022-12-31T06:01:06.689Z,244.23
2022-12-31T06:02:06.598Z,243.87
2022-12-31T06:03:06.674Z,243.51
2022-12-31T06:04:06.605Z,243.33
2022-12-31T06:05:06.598Z,244.59
2022-12-31T06:06:06.545Z,239.62
2022-12-31T06:07:06.553Z,236.37
2022-12-31T06:08:06.526Z,236.03
2022-12-31T06:09:06.554Z,232.71
2022-12-31T06:10:06.523Z,227.90
2022-12-31T06:11:06.527Z,226.02
2022-12-31T06:12:06.486Z,224.19
2022-12-31T06:13:06.488Z,225.26
2022-12-31T06:14:06.456Z,227.27
2022-12-31T06:15:06.455Z,222.23
2022-12-31T06:16:06.506Z,221.48
2022-12-31T06:17:06.445Z,224.19
2022-12-31T06:18:06.408Z,224.03
2022-12-31T06:19:06.419Z,223.13
2022-12-31T06:20:12.513Z,226.65
2022-12-31T06:21:07.412Z,225.41
2022-12-31T06:22:06.380Z,230.44
2022-12-31T06:23:06.369Z,230.76
2022-12-31T06:24:06.347Z,233.04
2022-12-31T06:25:06.343Z,236.54
2022-12-31T06:26:06.309Z,233.86
2022-12-31T06:27:06.331Z,229.48
2022-12-31T06:28:06.290Z,232.87
2022-12-31T06:29:06.306Z,232.54
2022-12-31T06:30:06.262Z,228.37
2022-12-31T06:31:06.322Z,222.98
2022-12-31T06:32:06.258Z,221.04
2022-12-31T06:33:06.252Z,215.70
2022-12-31T06:34:06.225Z,212.24
2022-12-31T06:35:06.223Z,212.24
2022-12-31T06:36:06.201Z,207.18
2022-12-31T06:37:06.216Z,210.62
2022-12-31T06:38:06.196Z,216.12
2022-12-31T06:39:06.173Z,215.98
2022-12-31T06:40:06.161Z,214.72
2022-12-31T06:41:06.160Z,220.15
2022-12-31T06:42:06.131Z,219.42
2022-12-31T06:43:06.140Z,221.78
2022-12-31T06:44:06.113Z,219.42
2022-12-31T06:45:06.111Z,223.28
2022-12-31T06:46:06.122Z,221.63
2022-12-31T06:47:06.094Z,226.49
2022-12-31T06:48:06.051Z,230.60
2022-12-31T06:49:06.087Z,237.05
2022-12-31T06:50:06.042Z,241.20
2022-12-31T06:51:06.047Z,248.07
2022-12-31T06:52:06.019Z,251.66
2022-12-31T06:53:06.015Z,256.35
2022-12-31T06:54:06.018Z,258.96
2022-12-31T06:55:06.004Z,262.87
2022-12-31T06:56:05.960Z,267.33
2022-12-31T06:57:05.962Z,263.29
2022-12-31T06:58:05.943Z,262.45
2022-12-31T06:59:05.941Z,248.07
2022-12-31T07:00:05.932Z,250.71
2022-12-31T07:01:05.951Z,251.09
2022-12-31T07:02:05.944Z,245.31
2022-12-31T07:03:05.947Z,230.12
2022-12-31T07:04:05.871Z,202.24
2022-12-31T07:05:05.889Z,181.95
2022-12-31T07:06:05.843Z,178.29
2022-12-31T07:07:05.847Z,186.08
2022-12-31T07:08:05.821Z,182.74
2022-12-31T07:09:05.839Z,186.92
2022-12-31T07:10:05.795Z,195.08
2022-12-31T07:11:05.811Z,206.54
2022-12-31T07:12:05.782Z,216.41
2022-12-31T07:13:05.790Z,224.79
2022-12-31T07:14:05.758Z,231.73
2022-12-31T07:15:05.767Z,228.21
2022-12-31T07:16:05.777Z,218.99
2022-12-31T07:17:05.731Z,199.43
2022-12-31T07:18:05.699Z,186.81
2022-12-31T07:19:05.694Z,177.72
2022-12-31T07:20:05.688Z,175.31
2022-12-31T07:21:05.678Z,170.17
2022-12-31T07:22:05.665Z,169.48
2022-12-31T07:23:05.649Z,175.31
2022-12-31T07:24:05.640Z,177.35
2022-12-31T07:25:05.629Z,185.76
2022-12-31T07:26:05.610Z,194.96
2022-12-31T07:27:05.620Z,202.12
2022-12-31T07:28:05.586Z,202.49
2022-12-31T07:29:05.603Z,204.49
2022-12-31T07:30:05.561Z,205.38
2022-12-31T07:31:05.588Z,209.02
2022-12-31T07:32:05.539Z,215.42
2022-12-31T07:33:05.543Z,217.40
2022-12-31T07:34:05.509Z,221.63
2022-12-31T07:35:05.527Z,225.56
2022-12-31T07:36:05.504Z,228.37
2022-12-31T07:37:05.518Z,230.44
2022-12-31T07:38:05.458Z,233.70
2022-12-31T07:39:05.471Z,237.22
2022-12-31T07:40:05.453Z,238.93
2022-12-31T07:41:09.458Z,224.79
2022-12-31T07:42:05.433Z,224.34
2022-12-31T07:43:05.442Z,228.52
2022-12-31T07:44:05.400Z,213.20
2022-12-31T07:45:05.416Z,204.24
2022-12-31T07:46:05.408Z,212.65
2022-12-31T07:47:05.380Z,218.26
2022-12-31T07:48:05.348Z,226.65
2022-12-31T07:49:05.363Z,231.89
2022-12-31T07:50:05.321Z,233.86
2022-12-31T07:51:05.328Z,216.98
2022-12-31T07:52:05.302Z,211.42
2022-12-31T07:53:05.304Z,216.83
2022-12-31T07:54:10.184Z,213.61
2022-12-31T07:55:06.282Z,211.15
2022-12-31T07:56:05.270Z,207.97
2022-12-31T07:57:05.263Z,216.83
2022-12-31T07:58:05.223Z,220.30
2022-12-31T07:59:05.238Z,220.89
2022-12-31T08:00:05.218Z,217.55
2022-12-31T08:01:05.318Z,213.47
2022-12-31T08:02:05.242Z,210.62
2022-12-31T08:03:05.195Z,205.00
2022-12-31T08:04:05.162Z,210.08
2022-12-31T08:05:05.162Z,221.04
2022-12-31T08:06:05.148Z,229.00
2022-12-31T08:07:05.134Z,235.69
2022-12-31T08:08:05.114Z,243.51
2022-12-31T08:09:05.125Z,244.05
2022-12-31T08:10:05.101Z,244.41
2022-12-31T08:11:05.126Z,245.68
2022-12-31T08:12:05.057Z,249.01
2022-12-31T08:13:05.065Z,247.15
2022-12-31T08:14:05.043Z,239.80
2022-12-31T08:15:05.041Z,226.80
2022-12-31T08:16:05.091Z,216.41
2022-12-31T08:17:05.027Z,217.40
2022-12-31T08:18:04.990Z,222.68
2022-12-31T08:19:04.998Z,228.68
2022-12-31T08:20:05.067Z,237.73
2022-12-31T08:21:04.980Z,244.95
2022-12-31T08:22:04.954Z,247.52
2022-12-31T08:23:04.955Z,254.38
2022-12-31T08:24:04.927Z,262.24
2022-12-31T08:25:04.931Z,269.30
2022-12-31T08:26:04.915Z,272.63
2022-12-31T08:27:04.896Z,274.67
2022-12-31T08:28:04.873Z,276.73
2022-12-31T08:29:04.877Z,278.13
2022-12-31T08:30:04.850Z,280.25
2022-12-31T08:31:04.868Z,282.17
2022-12-31T08:32:04.842Z,285.83
2022-12-31T08:33:04.832Z,285.09
2022-12-31T08:34:06.124Z,286.82
2022-12-31T08:35:04.797Z,287.32
2022-12-31T08:36:04.783Z,285.58
2022-12-31T08:37:04.800Z,281.21
2022-12-31T08:38:04.752Z,281.21
2022-12-31T08:39:04.763Z,280.49
2022-12-31T08:40:04.736Z,283.38
2022-12-31T08:41:04.737Z,285.09
2022-12-31T08:42:04.706Z,284.11
2022-12-31T08:43:04.735Z,285.09
2022-12-31T08:44:04.678Z,283.13
2022-12-31T08:45:04.698Z,283.86
2022-12-31T08:46:04.736Z,282.65
2022-12-31T08:47:04.672Z,284.11
2022-12-31T08:48:04.684Z,280.73
2022-12-31T08:49:04.695Z,276.50
2022-12-31T08:50:04.624Z,278.83
2022-12-31T08:51:04.627Z,276.97
2022-12-31T08:52:04.579Z,276.27
2022-12-31T08:53:04.605Z,275.58
2022-12-31T08:54:04.661Z,271.95
2022-12-31T08:55:04.567Z,271.28
2022-12-31T08:56:04.574Z,271.28
2022-12-31T08:57:04.551Z,268.86
2022-12-31T08:58:04.539Z,252.62
2022-12-31T08:59:04.534Z,227.42
2022-12-31T09:00:04.549Z,224.34
2022-12-31T09:01:04.583Z,231.73
2022-12-31T09:02:04.610Z,232.87
2022-12-31T09:03:04.457Z,237.22
2022-12-31T09:04:04.526Z,239.10
2022-12-31T09:05:04.503Z,241.20
2022-12-31T09:06:04.450Z,244.23
2022-12-31T09:07:04.414Z,248.26
2022-12-31T09:08:04.431Z,250.71
2022-12-31T09:09:04.422Z,250.90
2022-12-31T09:10:04.397Z,249.95
2022-12-31T09:11:04.406Z,248.45
2022-12-31T09:12:04.374Z,242.61
2022-12-31T09:13:04.364Z,235.69
2022-12-31T09:14:04.349Z,235.53
2022-12-31T09:15:04.325Z,236.20
2022-12-31T09:16:04.379Z,236.37
2022-12-31T09:17:04.301Z,232.87
2022-12-31T09:18:04.305Z,235.69
2022-12-31T09:19:04.302Z,235.36
2022-12-31T09:20:04.454Z,236.37
2022-12-31T09:21:04.266Z,230.60
2022-12-31T09:22:04.259Z,229.32
2022-12-31T09:23:04.238Z,234.36
2022-12-31T09:24:09.159Z,233.37
2022-12-31T09:25:05.217Z,232.22
2022-12-31T09:26:04.208Z,234.52
2022-12-31T09:27:04.205Z,237.05
2022-12-31T09:28:04.199Z,234.52
2022-12-31T09:29:04.196Z,232.87
2022-12-31T09:30:04.171Z,232.38
2022-12-31T09:31:04.132Z,230.28
2022-12-31T09:32:04.217Z,232.38
2022-12-31T09:33:04.121Z,233.53
2022-12-31T09:34:04.120Z,235.86
2022-12-31T09:35:04.089Z,239.10
2022-12-31T09:36:04.089Z,240.15
2022-12-31T09:37:04.089Z,239.28
2022-12-31T09:38:07.977Z,241.20
2022-12-31T09:39:05.041Z,243.69
2022-12-31T09:40:04.051Z,244.23
2022-12-31T09:41:04.027Z,240.85
2022-12-31T09:42:04.061Z,236.03
2022-12-31T09:43:04.017Z,232.87
2022-12-31T09:44:04.001Z,233.20
2022-12-31T09:45:03.983Z,235.19
2022-12-31T09:46:04.020Z,237.05
2022-12-31T09:47:03.952Z,237.05
2022-12-31T09:48:03.982Z,237.39
2022-12-31T09:49:03.932Z,242.97
2022-12-31T09:50:03.947Z,248.26
2022-12-31T09:51:03.987Z,250.14
2022-12-31T09:52:03.906Z,248.82
2022-12-31T09:53:03.913Z,248.63
2022-12-31T09:54:03.927Z,251.66
2022-12-31T09:55:03.869Z,257.35
2022-12-31T09:56:03.872Z,259.98
2022-12-31T09:57:03.882Z,262.04
2022-12-31T09:58:03.849Z,263.50
2022-12-31T09:59:03.809Z,264.98
2022-12-31T10:00:03.831Z,266.47
2022-12-31T10:01:03.909Z,264.77
2022-12-31T10:02:04.056Z,267.77
2022-12-31T10:03:03.839Z,262.87
2022-12-31T10:04:03.790Z,265.40
2022-12-31T10:05:03.759Z,267.77
2022-12-31T10:06:03.762Z,273.08
2022-12-31T10:07:03.718Z,274.67
2022-12-31T10:08:03.727Z,278.60
2022-12-31T10:09:03.691Z,279.31
2022-12-31T10:10:03.702Z,283.13
2022-12-31T10:11:03.692Z,282.65
2022-12-31T10:12:03.699Z,283.62
2022-12-31T10:13:03.663Z,283.86
2022-12-31T10:14:03.651Z,283.62
2022-12-31T10:15:03.624Z,278.60
2022-12-31T10:16:03.666Z,271.51
2022-12-31T10:17:03.640Z,275.12
2022-12-31T10:18:03.637Z,272.63
2022-12-31T10:19:03.593Z,273.76
2022-12-31T10:20:03.600Z,275.12
2022-12-31T10:21:03.573Z,279.54
2022-12-31T10:22:03.559Z,282.17
2022-12-31T10:23:03.532Z,289.08
2022-12-31T10:24:03.560Z,289.33
2022-12-31T10:25:03.531Z,289.58
2022-12-31T10:26:03.540Z,289.84
2022-12-31T10:27:03.489Z,291.88
2022-12-31T10:28:03.495Z,291.63
2022-12-31T10:29:03.468Z,292.14
2022-12-31T10:30:03.501Z,295.01
2022-12-31T10:31:03.478Z,294.48
2022-12-31T10:32:03.453Z,295.27
2022-12-31T10:33:03.437Z,295.80
2022-12-31T10:34:03.424Z,293.18
2022-12-31T10:35:03.420Z,292.40
2022-12-31T10:36:03.425Z,292.14
2022-12-31T10:37:03.377Z,295.01
2022-12-31T10:38:03.382Z,290.35
2022-12-31T10:39:08.821Z,293.96
2022-12-31T10:40:04.361Z,290.35
2022-12-31T10:41:03.328Z,285.33
2022-12-31T10:42:03.342Z,276.97
2022-12-31T10:43:03.305Z,274.21
2022-12-31T10:44:03.305Z,274.67
2022-12-31T10:45:03.295Z,277.20
2022-12-31T10:46:03.321Z,282.17
2022-12-31T10:47:03.280Z,274.89
2022-12-31T10:48:03.268Z,273.53
2022-12-31T10:49:03.242Z,275.58
2022-12-31T10:50:03.242Z,273.53
2022-12-31T10:51:03.246Z,273.76
2022-12-31T10:52:03.218Z,273.98
2022-12-31T10:53:03.185Z,266.26
2022-12-31T10:54:03.227Z,250.71
2022-12-31T10:55:03.185Z,243.15
2022-12-31T10:56:03.163Z,227.27
2022-12-31T10:57:03.155Z,208.75
2022-12-31T10:58:04.483Z,204.11
2022-12-31T10:59:03.116Z,209.68
2022-12-31T11:00:03.120Z,200.89
2022-12-31T11:01:03.131Z,191.35
2022-12-31T11:02:03.195Z,181.76
2022-12-31T11:03:03.221Z,193.93
2022-12-31T11:04:03.078Z,211.15
2022-12-31T11:05:03.047Z,224.03
2022-12-31T11:06:03.055Z,234.52
2022-12-31T11:07:03.017Z,240.67
2022-12-31T11:08:03.030Z,243.87
2022-12-31T11:09:03.020Z,248.07
2022-12-31T11:10:03.004Z,253.21
2022-12-31T11:11:02.977Z,257.55
2022-12-31T11:12:02.967Z,259.77
2022-12-31T11:13:02.971Z,243.51
2022-12-31T11:14:02.977Z,205.26
2022-12-31T11:15:02.924Z,194.96
2022-12-31T11:16:03.010Z,196.82
2022-12-31T11:17:03.142Z,197.29
2022-12-31T11:18:02.899Z,198.12
2022-12-31T11:19:02.882Z,203.86
2022-12-31T11:20:02.921Z,211.97
2022-12-31T11:21:02.874Z,216.83
2022-12-31T11:22:02.868Z,214.16
2022-12-31T11:23:02.841Z,207.57
2022-12-31T11:24:02.844Z,210.08
2022-12-31T11:25:02.833Z,211.42
2022-12-31T11:26:02.821Z,212.51
2022-12-31T11:27:02.797Z,216.12
2022-12-31T11:28:02.805Z,222.83
2022-12-31T11:29:02.773Z,225.41
2022-12-31T11:30:02.792Z,228.37
2022-12-31T11:31:02.788Z,227.42
2022-12-31T11:32:02.755Z,226.65
2022-12-31T11:33:02.726Z,225.56
2022-12-31T11:34:02.743Z,229.80
2022-12-31T11:35:02.712Z,234.19
2022-12-31T11:36:02.724Z,235.36
2022-12-31T11:37:02.701Z,240.85
2022-12-31T11:38:02.670Z,243.69
2022-12-31T11:39:02.654Z,244.05
2022-12-31T11:40:02.651Z,244.59
2022-12-31T11:41:02.648Z,244.59
2022-12-31T11:42:02.627Z,243.15
2022-12-31T11:43:02.614Z,243.51
2022-12-31T11:44:02.604Z,245.86
2022-12-31T11:45:02.576Z,248.45
2022-12-31T11:46:02.646Z,239.62
2022-12-31T11:47:02.562Z,233.53
2022-12-31T11:48:29.578Z,236.37
2022-12-31T11:49:03.538Z,237.22
2022-12-31T11:50:02.539Z,226.33
2022-12-31T11:51:02.536Z,216.83
2022-12-31T11:52:02.513Z,215.56
2022-12-31T11:53:02.490Z,217.55
2022-12-31T11:54:02.491Z,224.34
2022-12-31T11:55:02.474Z,234.69
2022-12-31T11:56:02.474Z,239.80
2022-12-31T11:57:02.461Z,242.97
2022-12-31T11:58:02.466Z,244.77
2022-12-31T11:59:07.749Z,246.96
2022-12-31T12:00:03.445Z,247.15
2022-12-31T12:01:02.462Z,252.43
2022-12-31T12:02:02.412Z,252.05
2022-12-31T12:03:02.408Z,251.28
2022-12-31T12:04:02.425Z,252.05
2022-12-31T12:05:08.426Z,256.15
2022-12-31T12:06:03.372Z,257.75
2022-12-31T12:07:02.342Z,261.42
2022-12-31T12:08:02.362Z,261.83
2022-12-31T12:09:02.310Z,245.13
2022-12-31T12:10:02.327Z,236.71
2022-12-31T12:11:02.289Z,231.08
2022-12-31T12:12:02.288Z,232.87
2022-12-31T12:13:02.278Z,238.76
2022-12-31T12:14:02.278Z,234.86
2022-12-31T12:15:02.232Z,232.71
2022-12-31T12:16:02.298Z,230.60
2022-12-31T12:17:05.139Z,234.69
2022-12-31T12:18:02.227Z,236.71
2022-12-31T12:19:02.193Z,230.28
2022-12-31T12:20:02.190Z,229.48
2022-12-31T12:21:02.172Z,229.96
2022-12-31T12:22:02.169Z,233.86
2022-12-31T12:23:02.148Z,238.24
2022-12-31T12:24:02.168Z,237.73
2022-12-31T12:25:02.123Z,240.15
2022-12-31T12:26:02.145Z,241.20
2022-12-31T12:27:02.111Z,246.23
2022-12-31T12:28:02.097Z,249.01
2022-12-31T12:29:02.094Z,254.38
2022-12-31T12:30:02.111Z,257.95
2022-12-31T12:31:02.115Z,259.98
2022-12-31T12:32:02.088Z,262.24
2022-12-31T12:33:02.029Z,262.87
2022-12-31T12:34:02.030Z,262.04
2022-12-31T12:35:02.051Z,262.04
2022-12-31T12:36:02.007Z,265.19
2022-12-31T12:37:02.003Z,266.26